createdAt,value
2022-10-20T00:01:58.699Z,16.30
2022-10-20T00:04:25.828Z,16.33
2022-10-20T00:06:52.996Z,16.31
2022-10-20T00:09:20.096Z,16.33
2022-10-20T00:11:47.285Z,16.27
2022-10-20T00:14:14.475Z,16.31
2022-10-20T00:16:41.675Z,16.31
2022-10-20T00:19:09.499Z,16.33
2022-10-20T00:21:36.704Z,16.29
2022-10-20T00:24:03.911Z,16.22
2022-10-20T00:26:31.850Z,16.17
2022-10-20T00:29:01.333Z,16.12
2022-10-20T00:31:28.506Z,16.20
2022-10-20T00:33:55.642Z,16.22
2022-10-20T00:36:23.510Z,16.25
2022-10-20T00:38:51.673Z,16.35
2022-10-20T00:41:20.838Z,16.34
2022-10-20T00:43:52.599Z,16.18
2022-10-20T00:46:21.335Z,16.24
2022-10-20T00:48:50.227Z,16.31
2022-10-20T00:51:19.941Z,16.26
2022-10-20T00:53:48.748Z,16.23
2022-10-20T00:56:15.865Z,16.25
2022-10-20T00:58:43.547Z,16.21
2022-10-20T01:01:11.776Z,16.23
2022-10-20T01:03:45.807Z,16.20
2022-10-20T01:06:14.318Z,16.14
2022-10-20T01:08:41.529Z,16.16
2022-10-20T01:11:27.612Z,16.16
2022-10-20T01:14:00.703Z,16.07
2022-10-20T01:16:30.505Z,16.03
2022-10-20T01:19:07.919Z,16.03
2022-10-20T01:21:45.869Z,16.02
2022-10-20T01:24:13.006Z,15.99
2022-10-20T01:26:56.965Z,16.07
2022-10-20T01:29:33.988Z,16.09
2022-10-20T01:32:01.196Z,16.09
2022-10-20T01:34:31.642Z,16.09
2022-10-20T01:36:58.722Z,16.09
2022-10-20T01:39:31.271Z,16.03
2022-10-20T01:42:08.241Z,16.03
2022-10-20T01:44:36.368Z,16.00
2022-10-20T01:47:03.861Z,15.98
2022-10-20T01:49:30.958Z,15.96
2022-10-20T01:51:58.166Z,16.00
2022-10-20T01:54:29.579Z,15.93
2022-10-20T01:57:26.404Z,15.86
2022-10-20T01:59:56.517Z,15.86
2022-10-20T02:02:43.025Z,15.88
2022-10-20T02:05:12.953Z,15.89
2022-10-20T02:07:42.194Z,15.90
2022-10-20T02:10:24.365Z,15.92
2022-10-20T02:12:54.118Z,15.92
2022-10-20T02:15:24.103Z,15.86
2022-10-20T02:17:55.096Z,15.85
2022-10-20T02:20:22.277Z,15.92
2022-10-20T02:22:49.554Z,15.91
2022-10-20T02:25:16.764Z,15.89
2022-10-20T02:27:46.958Z,15.86
2022-10-20T02:30:16.044Z,15.78
2022-10-20T02:32:44.241Z,15.71
2022-10-20T02:35:14.310Z,15.68
2022-10-20T02:37:41.618Z,15.65
2022-10-20T02:40:09.084Z,15.67
2022-10-20T02:42:36.285Z,15.68
2022-10-20T02:45:03.761Z,15.69
2022-10-20T02:47:30.883Z,15.72
2022-10-20T02:49:57.964Z,15.69
2022-10-20T02:52:25.065Z,15.67
2022-10-20T02:54:52.218Z,15.74
2022-10-20T02:57:19.361Z,15.77
2022-10-20T02:59:46.544Z,15.80
2022-10-20T03:02:13.748Z,15.83
2022-10-20T03:04:40.917Z,15.73
2022-10-20T03:07:07.971Z,15.67
2022-10-20T03:09:35.078Z,15.58
2022-10-20T03:12:02.453Z,15.54
2022-10-20T03:14:29.590Z,15.42
2022-10-20T03:16:56.696Z,15.42
2022-10-20T03:19:23.857Z,15.43
2022-10-20T03:21:50.974Z,15.44
2022-10-20T03:24:18.071Z,15.44
2022-10-20T03:26:45.268Z,15.33
2022-10-20T03:29:12.319Z,15.32
2022-10-20T03:31:39.475Z,15.24
2022-10-20T03:34:06.650Z,15.30
2022-10-20T03:36:33.912Z,15.29
2022-10-20T03:39:01.099Z,15.36
2022-10-20T03:41:28.214Z,15.32
2022-10-20T03:43:55.327Z,15.30
2022-10-20T03:46:22.565Z,15.34
2022-10-20T03:48:49.793Z,15.32
2022-10-20T03:51:17.172Z,15.30
2022-10-20T03:53:44.373Z,15.35
2022-10-20T03:56:15.469Z,15.33
2022-10-20T03:58:42.617Z,15.31
2022-10-20T04:01:13.637Z,15.28
2022-10-20T04:03:40.940Z,15.29
2022-10-20T04:06:08.065Z,15.27
2022-10-20T04:08:35.261Z,15.21
2022-10-20T04:11:02.428Z,15.01
2022-10-20T04:13:29.530Z,14.96
2022-10-20T04:15:56.656Z,14.96
2022-10-20T04:18:23.812Z,15.02
2022-10-20T04:20:50.884Z,15.03
2022-10-20T04:23:18.078Z,15.06
2022-10-20T04:25:48.781Z,15.01
2022-10-20T04:28:16.810Z,15.02
2022-10-20T04:30:44.331Z,14.99
2022-10-20T04:33:11.929Z,15.00
2022-10-20T04:35:39.409Z,15.00
2022-10-20T04:38:06.864Z,14.99
2022-10-20T04:40:34.101Z,15.07
2022-10-20T04:43:01.235Z,15.07
2022-10-20T04:45:28.703Z,15.06
2022-10-20T04:47:56.817Z,15.05
2022-10-20T04:50:24.004Z,15.05
2022-10-20T04:53:07.542Z,15.04
2022-10-20T04:55:35.379Z,15.11
2022-10-20T04:58:02.690Z,15.12
2022-10-20T05:00:29.926Z,15.06
2022-10-20T05:02:57.149Z,15.02
2022-10-20T05:05:24.320Z,15.06
2022-10-20T05:07:51.446Z,15.07
2022-10-20T05:10:20.743Z,15.04
2022-10-20T05:12:47.826Z,15.03
2022-10-20T05:15:15.526Z,15.02
2022-10-20T05:17:42.682Z,14.99
2022-10-20T05:20:09.918Z,14.99
2022-10-20T05:22:37.352Z,14.91
2022-10-20T05:27:52.201Z,14.84
2022-10-20T05:30:19.378Z,14.89
2022-10-20T05:32:47.050Z,14.86
2022-10-20T05:35:14.275Z,14.83
2022-10-20T05:37:41.516Z,14.87
2022-10-20T05:40:09.085Z,14.85
2022-10-20T05:42:36.580Z,14.84
2022-10-20T05:45:04.580Z,14.95
2022-10-20T05:47:31.717Z,14.95
2022-10-20T05:49:58.984Z,14.91
2022-10-20T05:52:26.097Z,14.83
2022-10-20T05:54:53.157Z,14.78
2022-10-20T05:57:20.205Z,14.77
2022-10-20T05:59:47.356Z,14.76
2022-10-20T06:02:14.425Z,14.80
2022-10-20T06:04:41.543Z,14.79
2022-10-20T06:07:11.346Z,14.82
2022-10-20T06:09:38.982Z,14.79
2022-10-20T06:12:06.345Z,14.80
2022-10-20T06:14:33.475Z,14.85
2022-10-20T06:17:00.603Z,14.85
2022-10-20T06:19:27.801Z,14.82
2022-10-20T06:21:54.955Z,14.80
2022-10-20T06:24:22.888Z,14.80
2022-10-20T06:26:50.118Z,14.91
2022-10-20T06:29:18.059Z,14.74
2022-10-20T06:31:46.525Z,14.69
2022-10-20T06:34:14.811Z,14.86
2022-10-20T06:36:42.385Z,15.01
2022-10-20T06:39:11.622Z,15.14
2022-10-20T06:41:39.258Z,15.23
2022-10-20T06:44:09.007Z,15.41
2022-10-20T06:46:37.001Z,15.50
2022-10-20T06:49:05.474Z,15.61
2022-10-20T06:51:33.290Z,15.68
2022-10-20T06:54:00.574Z,15.76
2022-10-20T06:56:29.268Z,15.80
2022-10-20T06:58:56.950Z,15.86
2022-10-20T07:01:42.586Z,15.86
2022-10-20T07:04:16.101Z,15.84
2022-10-20T07:06:44.043Z,15.96
2022-10-20T07:09:15.380Z,16.06
2022-10-20T07:11:42.706Z,16.06
2022-10-20T07:14:12.260Z,15.92
2022-10-20T07:16:39.332Z,16.01
2022-10-20T07:19:06.403Z,16.24
2022-10-20T07:21:36.523Z,16.41
2022-10-20T07:24:07.918Z,16.49
2022-10-20T07:26:38.062Z,16.61
2022-10-20T07:29:05.348Z,16.64
2022-10-20T07:31:36.612Z,16.65
2022-10-20T07:34:23.401Z,16.73
2022-10-20T07:36:51.719Z,16.82
2022-10-20T07:39:18.884Z,16.93
2022-10-20T07:41:48.470Z,17.04
2022-10-20T07:44:16.281Z,17.19
2022-10-20T07:46:43.989Z,17.42
2022-10-20T07:51:58.351Z,18.56
2022-10-20T07:54:25.574Z,18.82
2022-10-20T07:56:53.086Z,19.06
2022-10-20T07:59:20.184Z,19.42
2022-10-20T08:01:47.786Z,19.47
2022-10-20T08:04:18.732Z,19.55
2022-10-20T08:06:47.287Z,19.47
2022-10-20T08:09:14.450Z,19.53
2022-10-20T08:11:41.609Z,19.43
2022-10-20T08:14:08.694Z,19.64
2022-10-20T08:16:37.818Z,19.91
2022-10-20T08:19:27.431Z,19.92
2022-10-20T08:21:54.612Z,19.76
2022-10-20T08:24:23.160Z,19.55
2022-10-20T08:26:50.811Z,19.38
2022-10-20T08:29:18.057Z,19.42
2022-10-20T08:31:45.198Z,19.43
2022-10-20T08:34:12.302Z,19.56
2022-10-20T08:36:39.435Z,19.66
2022-10-20T08:39:06.700Z,19.60
2022-10-20T08:41:55.449Z,19.66
2022-10-20T08:44:26.009Z,19.76
2022-10-20T08:46:53.429Z,19.85
2022-10-20T08:49:23.471Z,19.94
2022-10-20T08:51:51.084Z,20.04
2022-10-20T08:54:18.828Z,20.04
2022-10-20T08:56:46.421Z,20.21
2022-10-20T08:59:25.408Z,20.40
2022-10-20T09:01:52.958Z,20.40
2022-10-20T09:04:27.630Z,20.28
2022-10-20T09:06:58.433Z,20.32
2022-10-20T09:09:25.901Z,20.34
2022-10-20T09:11:56.060Z,20.24
2022-10-20T09:14:23.219Z,20.25
2022-10-20T09:17:00.337Z,20.28
2022-10-20T09:19:28.559Z,20.26
2022-10-20T09:22:02.174Z,20.37
2022-10-20T09:24:30.134Z,20.41
2022-10-20T09:27:16.541Z,20.50
2022-10-20T09:29:45.430Z,20.55
2022-10-20T09:32:56.321Z,20.50
2022-10-20T09:35:14.428Z,20.55
2022-10-20T09:37:44.112Z,20.44
2022-10-20T09:40:15.397Z,20.39
2022-10-20T09:42:49.649Z,20.27
2022-10-20T09:45:21.745Z,20.21
2022-10-20T09:47:52.473Z,20.25
2022-10-20T09:50:43.731Z,20.34
2022-10-20T09:53:17.883Z,20.28
2022-10-20T09:55:46.604Z,20.26
2022-10-20T09:58:22.133Z,20.27
2022-10-20T10:01:09.596Z,20.41
2022-10-20T10:03:41.106Z,20.59
2022-10-20T10:06:25.496Z,20.65
2022-10-20T10:08:52.818Z,20.60
2022-10-20T10:11:21.331Z,20.59
2022-10-20T10:13:53.088Z,20.57
2022-10-20T10:16:21.324Z,20.69
2022-10-20T10:18:56.562Z,20.75
2022-10-20T10:21:23.849Z,20.75
2022-10-20T10:27:00.087Z,20.92
2022-10-20T10:29:29.235Z,20.84
2022-10-20T10:32:16.677Z,20.85
2022-10-20T10:34:47.000Z,20.99
2022-10-20T10:37:34.917Z,20.93
2022-10-20T10:40:11.809Z,20.89
2022-10-20T10:42:46.881Z,20.91
2022-10-20T10:45:32.836Z,20.99
2022-10-20T10:48:19.013Z,21.08
2022-10-20T10:50:49.148Z,21.15
2022-10-20T10:53:23.899Z,21.18
2022-10-20T10:55:51.243Z,21.20
2022-10-20T10:58:21.106Z,21.17
2022-10-20T11:00:48.357Z,21.14
2022-10-20T11:03:15.555Z,21.18
2022-10-20T11:05:55.586Z,21.26
2022-10-20T11:08:30.156Z,21.27
2022-10-20T11:11:01.308Z,21.39
2022-10-20T11:13:43.300Z,21.36
2022-10-20T11:16:13.225Z,21.35
2022-10-20T11:18:49.699Z,21.37
2022-10-20T11:21:34.295Z,21.42
2022-10-20T11:24:42.715Z,21.42
2022-10-20T11:27:11.289Z,21.45
2022-10-20T11:29:38.470Z,21.51
2022-10-20T11:32:10.640Z,21.51
2022-10-20T11:34:46.749Z,21.48
2022-10-20T11:37:19.948Z,21.47
2022-10-20T11:39:56.635Z,21.47
2022-10-20T11:42:28.299Z,21.45
2022-10-20T11:44:56.866Z,21.49
2022-10-20T11:47:30.230Z,21.64
2022-10-20T11:49:58.384Z,21.53
2022-10-20T11:52:45.049Z,21.52
2022-10-20T11:55:18.366Z,21.53
2022-10-20T11:58:01.283Z,21.59
2022-10-20T12:00:31.291Z,21.57
2022-10-20T12:03:21.648Z,21.53
2022-10-20T12:05:52.002Z,21.58
2022-10-20T12:08:30.635Z,21.58
2022-10-20T12:11:16.932Z,21.61
2022-10-20T12:13:53.182Z,21.67
2022-10-20T12:16:38.822Z,21.72
2022-10-20T12:19:15.205Z,21.69
2022-10-20T12:22:01.109Z,21.69
2022-10-20T12:24:34.283Z,21.65
2022-10-20T12:27:05.195Z,21.59
2022-10-20T12:29:32.303Z,21.78
2022-10-20T12:32:21.081Z,21.80
2022-10-20T12:34:49.281Z,21.75
2022-10-20T12:37:20.778Z,21.79
2022-10-20T12:39:47.989Z,21.79
2022-10-20T12:42:31.030Z,21.80
2022-10-20T12:45:08.311Z,21.84
2022-10-20T12:47:36.955Z,21.84
2022-10-20T12:50:19.564Z,21.73
2022-10-20T12:52:47.004Z,21.79
2022-10-20T12:55:18.543Z,21.82
2022-10-20T12:57:46.079Z,21.84
2022-10-20T13:00:19.348Z,21.86
2022-10-20T13:03:26.192Z,22.00
2022-10-20T13:05:53.523Z,22.08
2022-10-20T13:08:22.977Z,22.03
2022-10-20T13:10:50.430Z,22.02
2022-10-20T13:13:17.481Z,21.96
2022-10-20T13:15:44.586Z,22.13
2022-10-20T13:18:11.880Z,22.03
2022-10-20T13:20:45.119Z,21.95
2022-10-20T13:23:16.557Z,21.92
2022-10-20T13:25:45.008Z,21.86
2022-10-20T13:28:18.478Z,21.87
2022-10-20T13:30:55.011Z,21.88
2022-10-20T13:33:38.821Z,21.94
2022-10-20T13:36:15.606Z,21.89
2022-10-20T13:39:03.429Z,21.91
2022-10-20T13:41:40.865Z,21.96
2022-10-20T13:44:23.254Z,22.00
2022-10-20T13:47:06.882Z,21.91
2022-10-20T13:49:34.054Z,21.87
2022-10-20T13:52:06.015Z,21.84
2022-10-20T13:54:35.888Z,21.76
2022-10-20T13:57:03.689Z,21.73
2022-10-20T13:59:31.269Z,21.78
2022-10-20T14:02:00.498Z,21.97
2022-10-20T14:04:30.082Z,22.08
2022-10-20T14:07:09.962Z,21.91
2022-10-20T14:09:39.548Z,21.98
2022-10-20T14:12:16.768Z,21.84
2022-10-20T14:14:45.147Z,21.74
2022-10-20T14:17:19.298Z,21.68
2022-10-20T14:19:46.961Z,21.85
2022-10-20T14:22:23.123Z,21.96
2022-10-20T14:24:51.430Z,21.84
2022-10-20T14:27:26.618Z,21.81
2022-10-20T14:29:54.144Z,21.75
2022-10-20T14:32:23.391Z,21.79
2022-10-20T14:34:57.072Z,21.82
2022-10-20T14:37:32.712Z,21.78
2022-10-20T14:40:05.077Z,21.75
2022-10-20T14:42:33.524Z,21.73
2022-10-20T14:45:02.040Z,21.70
2022-10-20T14:47:33.265Z,21.66
2022-10-20T14:50:00.468Z,21.63
2022-10-20T14:52:32.076Z,21.61
2022-10-20T14:54:59.437Z,21.61
2022-10-20T14:57:43.267Z,21.58
2022-10-20T15:00:30.527Z,21.69
2022-10-20T15:02:58.833Z,21.71
2022-10-20T15:05:26.105Z,21.62
2022-10-20T15:07:53.920Z,21.61
2022-10-20T15:10:22.807Z,21.63
2022-10-20T15:12:52.147Z,21.59
2022-10-20T15:15:23.833Z,21.51
2022-10-20T15:17:52.602Z,21.45
2022-10-20T15:20:34.745Z,21.39
2022-10-20T15:23:25.446Z,21.37
2022-10-20T15:26:04.462Z,21.34
2022-10-20T15:28:38.967Z,21.33
2022-10-20T15:31:26.636Z,21.30
2022-10-20T15:33:55.061Z,21.29
2022-10-20T15:36:29.911Z,21.28
2022-10-20T15:38:57.463Z,21.25
2022-10-20T15:41:26.200Z,21.23
2022-10-20T15:43:53.858Z,21.19
2022-10-20T15:46:21.437Z,21.14
2022-10-20T15:48:48.947Z,21.09
2022-10-20T15:51:16.224Z,21.05
2022-10-20T15:53:46.011Z,21.03
2022-10-20T15:56:13.247Z,21.00
2022-10-20T15:58:40.504Z,20.97
2022-10-20T16:01:08.041Z,20.96
2022-10-20T16:03:35.807Z,20.92
2022-10-20T16:06:21.616Z,20.87
2022-10-20T16:08:49.962Z,20.84
2022-10-20T16:11:18.343Z,20.81
2022-10-20T16:13:45.633Z,20.78
2022-10-20T16:16:15.010Z,20.74
2022-10-20T16:18:42.350Z,20.70
2022-10-20T16:21:09.534Z,20.67
2022-10-20T16:23:40.771Z,20.63
2022-10-20T16:26:13.066Z,20.60
2022-10-20T16:28:40.357Z,20.56
2022-10-20T16:31:08.680Z,20.52
2022-10-20T16:33:36.148Z,20.50
2022-10-20T16:38:40.487Z,20.47
2022-10-20T16:41:09.902Z,20.43
2022-10-20T16:43:40.924Z,20.40
2022-10-20T16:46:09.027Z,20.37
2022-10-20T16:48:37.817Z,20.34
2022-10-20T16:51:06.398Z,20.30
2022-10-20T16:53:33.985Z,20.29
2022-10-20T16:56:01.430Z,20.27
2022-10-20T16:58:28.606Z,20.25
2022-10-20T17:00:56.559Z,20.21
2022-10-20T17:03:23.781Z,20.17
2022-10-20T17:05:55.193Z,20.15
2022-10-20T17:08:22.354Z,20.15
2022-10-20T17:10:54.625Z,20.13
2022-10-20T17:13:21.776Z,20.10
2022-10-20T17:15:48.953Z,20.09
2022-10-20T17:18:16.095Z,20.08
2022-10-20T17:20:43.423Z,20.08
2022-10-20T17:23:10.724Z,20.07
2022-10-20T17:25:38.121Z,19.97
2022-10-20T17:28:05.295Z,19.91
2022-10-20T17:30:32.480Z,19.88
2022-10-20T17:32:59.669Z,19.87
2022-10-20T17:35:28.345Z,19.85
2022-10-20T17:37:55.479Z,19.78
2022-10-20T17:40:22.817Z,19.74
2022-10-20T17:42:50.001Z,19.78
2022-10-20T17:45:17.207Z,19.77
2022-10-20T17:47:44.303Z,19.77
2022-10-20T17:50:11.517Z,19.71
2022-10-20T17:52:39.241Z,19.72
2022-10-20T17:55:06.875Z,19.69
2022-10-20T17:57:33.998Z,19.65
2022-10-20T18:00:04.915Z,19.71
2022-10-20T18:02:36.740Z,19.75
2022-10-20T18:05:04.542Z,19.72
2022-10-20T18:07:31.744Z,19.76
2022-10-20T18:09:59.072Z,19.68
2022-10-20T18:12:26.198Z,19.55
2022-10-20T18:14:53.327Z,19.44
2022-10-20T18:17:20.504Z,19.39
2022-10-20T18:19:47.656Z,19.40
2022-10-20T18:22:14.702Z,19.37
2022-10-20T18:24:41.773Z,19.29
2022-10-20T18:27:09.048Z,19.25
2022-10-20T18:29:36.202Z,19.21
2022-10-20T18:32:03.369Z,18.99
2022-10-20T18:34:30.540Z,18.95
2022-10-20T18:36:57.755Z,18.95
2022-10-20T18:39:24.894Z,18.79
2022-10-20T18:41:52.495Z,18.88
2022-10-20T18:44:19.717Z,19.01
2022-10-20T18:46:47.492Z,19.10
2022-10-20T18:49:16.035Z,19.09
2022-10-20T18:51:44.765Z,19.07
2022-10-20T18:54:12.423Z,18.98
2022-10-20T18:56:39.878Z,18.94
2022-10-20T18:59:08.462Z,18.97
2022-10-20T19:01:37.271Z,18.97
2022-10-20T19:04:04.903Z,18.96
2022-10-20T19:06:33.427Z,18.93
2022-10-20T19:09:02.272Z,18.96
2022-10-20T19:11:30.673Z,19.04
2022-10-20T19:13:58.509Z,19.01
2022-10-20T19:16:26.993Z,18.96
2022-10-20T19:18:55.613Z,18.87
2022-10-20T19:21:23.278Z,18.87
2022-10-20T19:23:58.441Z,18.95
2022-10-20T19:26:27.401Z,18.89
2022-10-20T19:28:58.611Z,18.83
2022-10-20T19:31:39.552Z,18.94
2022-10-20T19:34:15.946Z,18.84
2022-10-20T19:36:46.526Z,18.99
2022-10-20T19:39:19.405Z,19.03
2022-10-20T19:41:49.737Z,18.98
2022-10-20T19:44:17.956Z,18.98
2022-10-20T19:46:46.947Z,18.94
2022-10-20T19:49:14.920Z,18.91
2022-10-20T19:51:42.365Z,18.86
2022-10-20T19:54:09.881Z,18.83
2022-10-20T19:56:38.030Z,18.74
2022-10-20T19:59:24.001Z,18.79
2022-10-20T20:01:52.578Z,18.81
2022-10-20T20:04:20.236Z,18.78
2022-10-20T20:06:48.045Z,18.74
2022-10-20T20:09:18.679Z,18.74
2022-10-20T20:11:46.301Z,18.65
2022-10-20T20:14:15.342Z,18.67
2022-10-20T20:16:46.757Z,18.74
2022-10-20T20:19:15.658Z,18.67
2022-10-20T20:21:43.132Z,18.71
2022-10-20T20:24:11.372Z,18.72
2022-10-20T20:26:38.681Z,18.75
2022-10-20T20:29:06.023Z,18.78
2022-10-20T20:31:33.674Z,18.77
2022-10-20T20:34:00.793Z,18.67
2022-10-20T20:36:28.267Z,18.69
2022-10-20T20:38:57.557Z,18.71
2022-10-20T20:41:26.727Z,18.73
2022-10-20T20:43:54.049Z,18.75
2022-10-20T20:46:22.741Z,18.74
2022-10-20T20:48:50.494Z,18.75
2022-10-20T20:51:17.770Z,18.72
2022-10-20T20:53:44.940Z,18.77
2022-10-20T20:56:13.397Z,18.66
2022-10-20T20:58:41.934Z,18.59
2022-10-20T21:01:17.183Z,18.49
2022-10-20T21:03:44.455Z,18.49
2022-10-20T21:06:14.006Z,18.63
2022-10-20T21:08:42.082Z,18.59
2022-10-20T21:11:10.786Z,18.54
2022-10-20T21:13:38.598Z,18.50
2022-10-20T21:16:19.710Z,18.48
2022-10-20T21:18:48.320Z,18.51
2022-10-20T21:21:16.527Z,18.58
2022-10-20T21:23:43.703Z,18.64
2022-10-20T21:26:11.480Z,18.56
2022-10-20T21:28:39.166Z,18.51
2022-10-20T21:31:07.266Z,18.44
2022-10-20T21:33:35.422Z,18.42
2022-10-20T21:36:04.028Z,18.40
2022-10-20T21:38:32.106Z,18.41
2022-10-20T21:41:06.819Z,18.40
2022-10-20T21:43:35.129Z,18.37
2022-10-20T21:46:21.989Z,18.39
2022-10-20T21:48:50.743Z,18.34
2022-10-20T21:51:19.633Z,18.35
2022-10-20T21:53:47.322Z,18.30
2022-10-20T21:56:15.456Z,18.28
2022-10-20T21:58:42.680Z,18.27
2022-10-20T22:01:14.216Z,18.31
2022-10-20T22:03:42.004Z,18.29
2022-10-20T22:06:10.134Z,18.21
2022-10-20T22:08:38.154Z,18.22
2022-10-20T22:11:06.007Z,18.27
2022-10-20T22:13:33.588Z,18.30
2022-10-20T22:16:01.085Z,18.27
2022-10-20T22:18:28.388Z,18.22
2022-10-20T22:20:55.560Z,18.19
2022-10-20T22:23:22.899Z,18.17
2022-10-20T22:25:53.808Z,18.18
2022-10-20T22:28:20.969Z,18.17
2022-10-20T22:30:48.159Z,18.13
2022-10-20T22:33:15.366Z,18.14
2022-10-20T22:35:42.731Z,18.17
2022-10-20T22:38:09.907Z,18.16
2022-10-20T22:40:37.107Z,18.19
2022-10-20T22:43:04.283Z,18.20
2022-10-20T22:45:31.669Z,18.24
2022-10-20T22:47:58.896Z,18.28
2022-10-20T22:50:26.173Z,18.21
2022-10-20T22:52:53.291Z,18.21
2022-10-20T22:55:20.403Z,18.20
2022-10-20T22:57:48.537Z,18.16
2022-10-20T23:00:16.522Z,18.11
2022-10-20T23:02:43.657Z,18.10
2022-10-20T23:05:10.998Z,18.09
2022-10-20T23:07:38.567Z,18.04
2022-10-20T23:10:06.401Z,18.03
2022-10-20T23:12:52.317Z,18.09
2022-10-20T23:15:19.500Z,18.12
2022-10-20T23:17:47.058Z,18.11
2022-10-20T23:20:14.249Z,18.16
2022-10-20T23:22:41.384Z,18.21
2022-10-20T23:25:08.883Z,18.20
2022-10-20T23:27:36.866Z,18.19
2022-10-20T23:30:04.715Z,18.20
2022-10-20T23:32:31.854Z,18.17
2022-10-20T23:34:59.021Z,18.13
2022-10-20T23:37:26.257Z,18.17
2022-10-20T23:39:53.510Z,18.17
2022-10-20T23:42:20.721Z,18.16
2022-10-20T23:44:48.711Z,18.14
2022-10-20T23:47:16.832Z,18.11
2022-10-20T23:49:44.073Z,18.10
2022-10-20T23:52:11.225Z,18.12
2022-10-20T23:54:38.456Z,18.13
2022-10-20T23:57:05.630Z,18.17
2022-10-20T23:59:32.789Z,18.14
